createdAt,value
2022-11-05T00:03:20.170Z,470.3478260869565
2022-11-05T00:11:00.440Z,437.16053511705684
2022-11-05T00:18:23.100Z,402.3511705685619
2022-11-05T00:26:23.898Z,389.03344481605353
2022-11-05T00:34:02.149Z,399.31772575250835
2022-11-05T00:41:34.491Z,374.59866220735785
2022-11-05T00:55:41.759Z,346.2943143812709
2022-11-05T01:07:38.155Z,353.0769230769231
2022-11-05T01:15:13.086Z,359.04682274247494
2022-11-05T01:25:41.213Z,354.7157190635451
2022-11-05T01:33:33.034Z,345.55183946488296
2022-11-05T01:43:17.676Z,333.1438127090301
2022-11-05T01:51:33.970Z,368.0066889632107
2022-11-05T02:03:41.752Z,328.24414715719064
2022-11-05T02:11:29.026Z,338.44147157190633
2022-11-05T02:19:35.679Z,324.4347826086956
2022-11-05T02:27:47.568Z,324.72240802675583
2022-11-05T02:43:58.918Z,341.6220735785953
2022-11-05T02:52:34.180Z,332.81605351170566
2022-11-05T03:02:19.857Z,335.95317725752506
2022-11-05T03:16:58.549Z,337.428093645485
2022-11-05T03:24:56.406Z,325.1571906354515
2022-11-05T03:33:25.186Z,309.11036789297657
2022-11-05T03:41:18.937Z,320.53511705685617
2022-11-05T03:49:06.741Z,312.8829431438127
2022-11-05T03:56:54.067Z,289.12040133779266
2022-11-05T04:04:42.879Z,281.7725752508361
2022-11-05T04:12:36.557Z,269.98996655518397
2022-11-05T04:20:24.061Z,283.4113712374582
2022-11-05T04:30:36.146Z,283.7658862876254
2022-11-05T04:52:59.130Z,301.809364548495
2022-11-05T05:01:02.786Z,290.2608695652174
2022-11-05T05:08:58.501Z,303.95986622073576
2022-11-05T05:17:08.633Z,296.7090301003345
2022-11-05T05:30:56.141Z,325.9264214046823
2022-11-05T05:55:23.505Z,342.38795986622074
2022-11-05T06:08:27.396Z,362.2608695652174
2022-11-05T06:16:08.198Z,366.9397993311037
2022-11-05T06:28:17.133Z,395.8026755852843
2022-11-05T06:36:17.222Z,436.6220735785953
2022-11-05T06:43:50.913Z,424.7892976588629
2022-11-05T06:53:08.351Z,451.2040133779264
2022-11-05T07:09:33.644Z,465.24080267558526
2022-11-05T07:17:56.214Z,598.3511705685619
2022-11-05T07:26:21.345Z,567.9799331103679
2022-11-05T07:34:28.992Z,718.0033444816054
2022-11-05T07:48:06.672Z,493.16722408026754
2022-11-05T07:57:15.202Z,505.46488294314383
2022-11-05T08:05:41.077Z,512.6053511705686
2022-11-05T08:13:42.971Z,481.7324414715719
2022-11-05T08:23:16.377Z,423.2107023411371
2022-11-05T08:36:23.476Z,432.12040133779266
2022-11-05T08:44:52.593Z,442.46822742474916
2022-11-05T08:52:54.431Z,408.3344481605351
2022-11-05T09:01:01.797Z,387.25418060200667
2022-11-05T09:08:34.961Z,374.0535117056856
2022-11-05T09:15:53.662Z,372.571906354515
2022-11-05T09:23:24.829Z,387.60869565217394
2022-11-05T09:30:46.082Z,362.96989966555185
2022-11-05T09:38:40.496Z,338.32107023411373
2022-11-05T09:46:22.853Z,350.25752508361205
2022-11-05T09:53:45.794Z,331.4983277591973
2022-11-05T10:01:14.173Z,345.4816053511706
2022-11-05T10:08:50.536Z,362.1705685618729
2022-11-05T10:16:23.849Z,372.58528428093643
2022-11-05T10:36:39.776Z,493.3545150501672
2022-11-05T10:49:25.417Z,355.01003344481603
2022-11-05T10:56:58.467Z,366.04347826086956
2022-11-05T11:04:06.067Z,371.03678929765886
2022-11-05T11:12:08.808Z,406.2107023411371
2022-11-05T11:23:21.716Z,363.44816053511704
2022-11-05T11:34:53.439Z,359.2876254180602
2022-11-05T11:51:26.868Z,361.6254180602007
2022-11-05T12:09:38.392Z,332.0
2022-11-05T12:26:48.984Z,294.88628762541805
2022-11-05T12:38:58.463Z,285.25752508361205
2022-11-05T12:55:59.581Z,297.2341137123746
2022-11-05T13:31:47.678Z,290.53846153846155
2022-11-05T13:47:52.909Z,333.90301003344484
2022-11-05T13:57:18.853Z,283.73578595317724
2022-11-05T14:08:03.146Z,393.9866220735786
2022-11-05T14:17:53.363Z,377.628762541806
2022-11-05T14:28:16.651Z,353.75250836120404
2022-11-05T14:37:44.065Z,396.95652173913044
2022-11-05T14:49:15.564Z,449.2073578595318
2022-11-05T14:57:53.318Z,445.7959866220736
2022-11-05T15:05:54.688Z,438.9096989966555
2022-11-05T15:14:01.625Z,495.53177257525084
2022-11-05T15:22:34.526Z,453.02341137123744
2022-11-05T15:37:57.294Z,480.81270903010034
2022-11-05T15:45:38.164Z,467.0200668896321
2022-11-05T15:54:28.566Z,450.4816053511706
2022-11-05T16:02:36.152Z,448.17391304347825
2022-11-05T16:14:13.248Z,452.2742474916388
2022-11-05T16:32:07.165Z,438.2909698996655
2022-11-05T16:40:27.103Z,427.9197324414716
2022-11-05T17:10:19.941Z,382.89966555183946
2022-11-05T17:28:43.045Z,468.8528428093646
2022-11-05T17:43:41.047Z,623.9130434782609
2022-11-05T17:53:30.940Z,704.1505016722408
2022-11-05T18:19:16.058Z,924.4615384615385
2022-11-05T18:28:00.226Z,604.3478260869565
2022-11-05T18:40:03.143Z,660.2307692307693
2022-11-05T18:48:55.790Z,610.8528428093646
2022-11-05T18:56:52.986Z,459.67558528428094
2022-11-05T19:05:30.535Z,592.9130434782609
2022-11-05T19:15:05.105Z,1010.9331103678929
2022-11-05T19:32:56.981Z,1243.685618729097
2022-11-05T19:44:46.190Z,1388.1571906354516
2022-11-05T19:55:41.307Z,1315.628762541806
2022-11-05T20:23:00.036Z,758.3678929765887
2022-11-05T20:33:26.712Z,714.9598662207358
2022-11-05T20:42:47.486Z,686.5451505016722
2022-11-05T21:00:11.572Z,705.2408026755853
2022-11-05T21:12:41.122Z,869.9230769230769
2022-11-05T21:21:41.573Z,754.7157190635452
2022-11-05T21:33:30.959Z,715.3478260869565
2022-11-05T21:42:07.820Z,662.7056856187291
2022-11-05T21:51:12.463Z,643.3076923076923
2022-11-05T21:59:21.433Z,617.9163879598663
2022-11-05T22:09:36.186Z,599.1371237458194
2022-11-05T22:18:43.383Z,605.0367892976589
2022-11-05T22:27:47.811Z,555.6989966555184
2022-11-05T22:38:21.887Z,546.9431438127091
2022-11-05T22:47:09.260Z,528.685618729097
2022-11-05T22:55:24.072Z,524.5150501672241
2022-11-05T23:11:11.527Z,501.3344481605351
2022-11-05T23:24:35.610Z,466.4247491638796
2022-11-05T23:32:47.903Z,463.5685618729097
2022-11-05T23:44:30.874Z,450.056856187291
2022-11-05T23:56:13.071Z,437.0735785953177
